sensor_id;sensor_type;location;lat;lon;timestamp;temperature;humidity
652;DHT22;310;48.490;9.200;2023-01-29T00:01:08;5.20;38.10
652;DHT22;310;48.490;9.200;2023-01-29T00:03:34;5.40;37.80
652;DHT22;310;48.490;9.200;2023-01-29T00:06:03;5.50;37.20
652;DHT22;310;48.490;9.200;2023-01-29T00:08:35;5.30;37.70
652;DHT22;310;48.490;9.200;2023-01-29T00:11:02;5.60;38.70
652;DHT22;310;48.490;9.200;2023-01-29T00:13:28;5.60;36.90
652;DHT22;310;48.490;9.200;2023-01-29T00:15:55;5.60;37.10
652;DHT22;310;48.490;9.200;2023-01-29T00:18:21;5.60;36.70
652;DHT22;310;48.490;9.200;2023-01-29T00:20:47;5.60;37.00
652;DHT22;310;48.490;9.200;2023-01-29T00:23:13;5.90;36.10
652;DHT22;310;48.490;9.200;2023-01-29T00:25:40;5.80;36.40
652;DHT22;310;48.490;9.200;2023-01-29T00:28:06;5.90;36.50
652;DHT22;310;48.490;9.200;2023-01-29T00:30:32;5.60;36.70
652;DHT22;310;48.490;9.200;2023-01-29T00:32:58;5.70;36.40
652;DHT22;310;48.490;9.200;2023-01-29T00:35:23;5.60;36.40
652;DHT22;310;48.490;9.200;2023-01-29T00:37:49;5.70;36.60
652;DHT22;310;48.490;9.200;2023-01-29T00:40:15;5.70;36.30
652;DHT22;310;48.490;9.200;2023-01-29T00:42:42;5.80;36.50
652;DHT22;310;48.490;9.200;2023-01-29T00:45:26;5.90;36.10
652;DHT22;310;48.490;9.200;2023-01-29T00:47:52;6.00;35.50
652;DHT22;310;48.490;9.200;2023-01-29T00:50:17;5.70;36.30
652;DHT22;310;48.490;9.200;2023-01-29T00:52:43;5.70;36.50
652;DHT22;310;48.490;9.200;2023-01-29T00:55:10;5.80;36.10
652;DHT22;310;48.490;9.200;2023-01-29T00:57:36;6.10;35.60
652;DHT22;310;48.490;9.200;2023-01-29T01:00:05;5.90;35.40
652;DHT22;310;48.490;9.200;2023-01-29T01:02:31;5.90;35.50
652;DHT22;310;48.490;9.200;2023-01-29T01:05:26;6.00;35.70
652;DHT22;310;48.490;9.200;2023-01-29T01:07:54;6.00;35.50
652;DHT22;310;48.490;9.200;2023-01-29T01:15:26;5.90;35.30
652;DHT22;310;48.490;9.200;2023-01-29T01:17:54;5.90;36.40
652;DHT22;310;48.490;9.200;2023-01-29T01:20:20;6.00;35.40
652;DHT22;310;48.490;9.200;2023-01-29T01:22:45;5.70;35.70
652;DHT22;310;48.490;9.200;2023-01-29T01:25:11;5.60;36.30
652;DHT22;310;48.490;9.200;2023-01-29T01:27:36;5.60;36.60
652;DHT22;310;48.490;9.200;2023-01-29T01:30:10;5.80;36.00
652;DHT22;310;48.490;9.200;2023-01-29T01:32:37;5.90;36.20
652;DHT22;310;48.490;9.200;2023-01-29T01:35:02;6.00;35.30
652;DHT22;310;48.490;9.200;2023-01-29T01:37:28;5.90;35.90
652;DHT22;310;48.490;9.200;2023-01-29T01:39:54;5.90;35.40
652;DHT22;310;48.490;9.200;2023-01-29T01:42:27;6.00;35.40
652;DHT22;310;48.490;9.200;2023-01-29T01:44:58;6.10;35.30
652;DHT22;310;48.490;9.200;2023-01-29T01:47:36;6.00;35.20
652;DHT22;310;48.490;9.200;2023-01-29T01:50:15;6.00;35.50
652;DHT22;310;48.490;9.200;2023-01-29T01:52:46;5.80;35.80
652;DHT22;310;48.490;9.200;2023-01-29T01:55:16;5.60;36.40
652;DHT22;310;48.490;9.200;2023-01-29T01:57:44;5.70;37.10
652;DHT22;310;48.490;9.200;2023-01-29T02:00:14;5.70;36.70
652;DHT22;310;48.490;9.200;2023-01-29T02:02:43;5.40;36.90
652;DHT22;310;48.490;9.200;2023-01-29T02:05:29;4.70;38.50
652;DHT22;310;48.490;9.200;2023-01-29T02:08:23;5.10;37.80
652;DHT22;310;48.490;9.200;2023-01-29T02:11:10;5.30;37.10
652;DHT22;310;48.490;9.200;2023-01-29T02:13:36;5.70;36.30
652;DHT22;310;48.490;9.200;2023-01-29T02:16:01;5.90;36.30
652;DHT22;310;48.490;9.200;2023-01-29T02:18:27;6.00;35.90
652;DHT22;310;48.490;9.200;2023-01-29T02:26:39;6.10;35.50
652;DHT22;310;48.490;9.200;2023-01-29T02:29:28;5.90;35.50
652;DHT22;310;48.490;9.200;2023-01-29T02:32:28;6.00;35.20
652;DHT22;310;48.490;9.200;2023-01-29T02:35:14;6.00;35.90
652;DHT22;310;48.490;9.200;2023-01-29T02:38:23;6.10;35.40
652;DHT22;310;48.490;9.200;2023-01-29T02:43:46;6.20;35.80
652;DHT22;310;48.490;9.200;2023-01-29T02:48:58;6.10;34.90
652;DHT22;310;48.490;9.200;2023-01-29T02:51:42;6.20;34.50
652;DHT22;310;48.490;9.200;2023-01-29T02:54:26;6.20;34.30
652;DHT22;310;48.490;9.200;2023-01-29T02:57:04;6.20;34.30
652;DHT22;310;48.490;9.200;2023-01-29T02:59:36;6.00;34.90
652;DHT22;310;48.490;9.200;2023-01-29T03:02:08;6.10;35.10
652;DHT22;310;48.490;9.200;2023-01-29T03:04:40;6.10;34.80
652;DHT22;310;48.490;9.200;2023-01-29T03:07:15;6.00;34.60
652;DHT22;310;48.490;9.200;2023-01-29T03:10:05;6.00;34.90
652;DHT22;310;48.490;9.200;2023-01-29T03:12:33;6.00;35.00
652;DHT22;310;48.490;9.200;2023-01-29T03:15:11;5.90;34.90
652;DHT22;310;48.490;9.200;2023-01-29T03:17:52;5.70;35.40
652;DHT22;310;48.490;9.200;2023-01-29T03:20:22;5.70;35.20
652;DHT22;310;48.490;9.200;2023-01-29T03:22:54;5.80;35.40
652;DHT22;310;48.490;9.200;2023-01-29T03:25:22;6.00;34.40
652;DHT22;310;48.490;9.200;2023-01-29T03:28:08;6.00;35.10
652;DHT22;310;48.490;9.200;2023-01-29T03:30:55;6.00;35.00
652;DHT22;310;48.490;9.200;2023-01-29T03:33:53;6.00;34.60
652;DHT22;310;48.490;9.200;2023-01-29T03:36:31;6.00;34.80
652;DHT22;310;48.490;9.200;2023-01-29T03:39:07;5.90;34.60
652;DHT22;310;48.490;9.200;2023-01-29T03:44:16;5.90;34.70
652;DHT22;310;48.490;9.200;2023-01-29T03:46:59;5.70;35.00
652;DHT22;310;48.490;9.200;2023-01-29T03:49:55;5.30;35.90
652;DHT22;310;48.490;9.200;2023-01-29T03:52:27;5.40;36.20
652;DHT22;310;48.490;9.200;2023-01-29T03:55:02;5.60;35.60
652;DHT22;310;48.490;9.200;2023-01-29T04:02:52;6.10;33.80
652;DHT22;310;48.490;9.200;2023-01-29T04:05:23;6.00;33.80
652;DHT22;310;48.490;9.200;2023-01-29T04:07:54;6.20;33.80
652;DHT22;310;48.490;9.200;2023-01-29T04:10:24;6.10;34.30
652;DHT22;310;48.490;9.200;2023-01-29T04:12:56;6.00;34.10
652;DHT22;310;48.490;9.200;2023-01-29T04:15:26;6.10;35.50
652;DHT22;310;48.490;9.200;2023-01-29T04:17:54;6.20;34.10
652;DHT22;310;48.490;9.200;2023-01-29T04:20:21;6.20;33.70
652;DHT22;310;48.490;9.200;2023-01-29T04:22:49;6.20;33.80
652;DHT22;310;48.490;9.200;2023-01-29T04:25:18;6.20;34.70
652;DHT22;310;48.490;9.200;2023-01-29T04:36:01;5.70;34.50
652;DHT22;310;48.490;9.200;2023-01-29T04:50:11;5.40;34.50
652;DHT22;310;48.490;9.200;2023-01-29T04:52:46;4.90;32.90
652;DHT22;310;48.490;9.200;2023-01-29T04:55:48;4.90;33.80
652;DHT22;310;48.490;9.200;2023-01-29T04:58:38;4.90;34.30
652;DHT22;310;48.490;9.200;2023-01-29T05:01:09;5.30;32.70
652;DHT22;310;48.490;9.200;2023-01-29T05:03:40;5.40;32.80
652;DHT22;310;48.490;9.200;2023-01-29T05:06:07;5.70;32.20
652;DHT22;310;48.490;9.200;2023-01-29T05:08:36;5.90;32.30
652;DHT22;310;48.490;9.200;2023-01-29T05:11:02;6.00;31.20
652;DHT22;310;48.490;9.200;2023-01-29T05:13:29;6.00;31.00
652;DHT22;310;48.490;9.200;2023-01-29T05:16:00;5.70;32.40
652;DHT22;310;48.490;9.200;2023-01-29T05:18:28;5.60;32.40
652;DHT22;310;48.490;9.200;2023-01-29T05:20:55;5.80;32.20
652;DHT22;310;48.490;9.200;2023-01-29T05:23:22;5.90;31.60
652;DHT22;310;48.490;9.200;2023-01-29T05:25:49;5.60;31.40
652;DHT22;310;48.490;9.200;2023-01-29T05:28:16;5.60;31.90
652;DHT22;310;48.490;9.200;2023-01-29T05:30:46;5.80;31.50
652;DHT22;310;48.490;9.200;2023-01-29T05:35:44;5.70;32.10
652;DHT22;310;48.490;9.200;2023-01-29T05:38:10;5.60;32.70
652;DHT22;310;48.490;9.200;2023-01-29T05:40:36;5.60;32.90
652;DHT22;310;48.490;9.200;2023-01-29T05:43:02;5.50;32.00
652;DHT22;310;48.490;9.200;2023-01-29T05:45:29;5.30;32.40
652;DHT22;310;48.490;9.200;2023-01-29T05:47:58;5.20;32.40
652;DHT22;310;48.490;9.200;2023-01-29T05:50:27;5.60;31.60
652;DHT22;310;48.490;9.200;2023-01-29T05:53:00;6.00;30.00
652;DHT22;310;48.490;9.200;2023-01-29T05:55:27;6.10;30.00
652;DHT22;310;48.490;9.200;2023-01-29T05:57:54;5.80;30.40
652;DHT22;310;48.490;9.200;2023-01-29T06:00:19;5.90;30.00
652;DHT22;310;48.490;9.200;2023-01-29T06:02:45;5.90;31.10
652;DHT22;310;48.490;9.200;2023-01-29T06:05:11;5.90;30.70
652;DHT22;310;48.490;9.200;2023-01-29T06:07:36;6.00;30.00
652;DHT22;310;48.490;9.200;2023-01-29T06:10:04;5.90;29.90
652;DHT22;310;48.490;9.200;2023-01-29T06:12:30;5.40;31.10
652;DHT22;310;48.490;9.200;2023-01-29T06:14:56;5.30;31.90
652;DHT22;310;48.490;9.200;2023-01-29T06:17:21;4.90;33.10
652;DHT22;310;48.490;9.200;2023-01-29T06:19:47;4.90;33.00
652;DHT22;310;48.490;9.200;2023-01-29T06:22:12;5.20;32.60
652;DHT22;310;48.490;9.200;2023-01-29T06:24:38;5.30;30.80
652;DHT22;310;48.490;9.200;2023-01-29T06:27:03;5.10;31.40
652;DHT22;310;48.490;9.200;2023-01-29T06:29:29;5.40;31.50
652;DHT22;310;48.490;9.200;2023-01-29T06:31:54;5.80;30.30
652;DHT22;310;48.490;9.200;2023-01-29T06:34:20;5.70;29.80
652;DHT22;310;48.490;9.200;2023-01-29T06:36:45;5.20;30.80
652;DHT22;310;48.490;9.200;2023-01-29T06:39:11;5.60;30.90
652;DHT22;310;48.490;9.200;2023-01-29T06:41:37;5.70;29.60
652;DHT22;310;48.490;9.200;2023-01-29T06:44:02;5.50;29.70
652;DHT22;310;48.490;9.200;2023-01-29T06:46:28;5.40;29.60
652;DHT22;310;48.490;9.200;2023-01-29T06:48:57;5.30;29.60
652;DHT22;310;48.490;9.200;2023-01-29T06:51:23;5.00;30.70
652;DHT22;310;48.490;9.200;2023-01-29T06:53:49;5.30;30.30
652;DHT22;310;48.490;9.200;2023-01-29T06:56:14;5.60;29.80
652;DHT22;310;48.490;9.200;2023-01-29T06:58:40;5.80;29.90
652;DHT22;310;48.490;9.200;2023-01-29T07:01:09;5.90;30.00
652;DHT22;310;48.490;9.200;2023-01-29T07:03:35;6.10;28.90
652;DHT22;310;48.490;9.200;2023-01-29T07:06:01;6.00;28.80
652;DHT22;310;48.490;9.200;2023-01-29T07:08:27;6.00;29.50
652;DHT22;310;48.490;9.200;2023-01-29T07:10:57;5.40;29.60
652;DHT22;310;48.490;9.200;2023-01-29T07:13:23;5.40;29.60
652;DHT22;310;48.490;9.200;2023-01-29T07:15:48;5.50;29.70
652;DHT22;310;48.490;9.200;2023-01-29T07:18:14;5.40;29.90
652;DHT22;310;48.490;9.200;2023-01-29T07:20:40;5.30;30.60
652;DHT22;310;48.490;9.200;2023-01-29T07:23:10;5.30;31.00
652;DHT22;310;48.490;9.200;2023-01-29T07:25:37;5.60;30.00
652;DHT22;310;48.490;9.200;2023-01-29T07:28:03;5.80;29.90
652;DHT22;310;48.490;9.200;2023-01-29T07:30:29;5.60;29.70
652;DHT22;310;48.490;9.200;2023-01-29T07:32:55;5.70;29.80
652;DHT22;310;48.490;9.200;2023-01-29T07:35:20;6.00;29.10
652;DHT22;310;48.490;9.200;2023-01-29T07:37:49;6.10;29.30
652;DHT22;310;48.490;9.200;2023-01-29T07:40:15;6.10;29.40
652;DHT22;310;48.490;9.200;2023-01-29T07:42:40;6.00;28.80
652;DHT22;310;48.490;9.200;2023-01-29T07:45:08;6.10;28.90
652;DHT22;310;48.490;9.200;2023-01-29T07:47:34;5.80;29.20
652;DHT22;310;48.490;9.200;2023-01-29T07:50:00;5.70;29.00
652;DHT22;310;48.490;9.200;2023-01-29T07:52:25;5.80;29.00
652;DHT22;310;48.490;9.200;2023-01-29T07:54:53;6.00;29.30
652;DHT22;310;48.490;9.200;2023-01-29T07:57:18;6.10;29.10
652;DHT22;310;48.490;9.200;2023-01-29T07:59:44;6.00;28.60
652;DHT22;310;48.490;9.200;2023-01-29T08:02:10;6.00;28.50
652;DHT22;310;48.490;9.200;2023-01-29T08:04:35;5.90;29.30
652;DHT22;310;48.490;9.200;2023-01-29T08:07:01;5.50;30.70
652;DHT22;310;48.490;9.200;2023-01-29T08:09:29;5.60;29.70
652;DHT22;310;48.490;9.200;2023-01-29T08:11:55;5.60;30.00
652;DHT22;310;48.490;9.200;2023-01-29T08:14:21;5.50;30.60
652;DHT22;310;48.490;9.200;2023-01-29T08:16:46;5.30;31.30
652;DHT22;310;48.490;9.200;2023-01-29T08:19:12;5.30;30.50
652;DHT22;310;48.490;9.200;2023-01-29T08:21:38;5.50;30.20
652;DHT22;310;48.490;9.200;2023-01-29T08:24:03;5.80;30.40
652;DHT22;310;48.490;9.200;2023-01-29T08:26:29;5.20;31.30
652;DHT22;310;48.490;9.200;2023-01-29T08:28:55;5.50;30.30
652;DHT22;310;48.490;9.200;2023-01-29T08:31:20;5.30;30.70
652;DHT22;310;48.490;9.200;2023-01-29T08:33:46;5.10;30.40
652;DHT22;310;48.490;9.200;2023-01-29T08:36:12;4.90;31.00
652;DHT22;310;48.490;9.200;2023-01-29T08:38:38;5.40;30.00
652;DHT22;310;48.490;9.200;2023-01-29T08:41:04;5.50;30.10
652;DHT22;310;48.490;9.200;2023-01-29T08:43:30;5.90;29.50
652;DHT22;310;48.490;9.200;2023-01-29T08:45:56;5.80;29.80
652;DHT22;310;48.490;9.200;2023-01-29T08:48:22;5.60;29.80
652;DHT22;310;48.490;9.200;2023-01-29T08:50:48;5.10;31.20
652;DHT22;310;48.490;9.200;2023-01-29T08:53:14;5.30;31.00
652;DHT22;310;48.490;9.200;2023-01-29T08:55:40;5.60;30.20
652;DHT22;310;48.490;9.200;2023-01-29T08:58:07;6.00;30.00
652;DHT22;310;48.490;9.200;2023-01-29T09:00:34;5.90;30.00
652;DHT22;310;48.490;9.200;2023-01-29T09:03:00;5.90;30.40
652;DHT22;310;48.490;9.200;2023-01-29T09:05:27;5.60;32.30
652;DHT22;310;48.490;9.200;2023-01-29T09:07:53;5.70;30.90
652;DHT22;310;48.490;9.200;2023-01-29T09:10:20;5.40;30.00
652;DHT22;310;48.490;9.200;2023-01-29T09:12:46;5.30;31.10
652;DHT22;310;48.490;9.200;2023-01-29T09:15:11;5.40;30.70
652;DHT22;310;48.490;9.200;2023-01-29T09:17:37;5.50;30.00
652;DHT22;310;48.490;9.200;2023-01-29T09:20:03;5.60;29.70
652;DHT22;310;48.490;9.200;2023-01-29T09:22:31;5.40;29.60
652;DHT22;310;48.490;9.200;2023-01-29T09:24:57;5.50;29.70
652;DHT22;310;48.490;9.200;2023-01-29T09:27:22;5.40;29.60
652;DHT22;310;48.490;9.200;2023-01-29T09:29:48;4.80;31.00
652;DHT22;310;48.490;9.200;2023-01-29T09:32:14;5.10;30.10
652;DHT22;310;48.490;9.200;2023-01-29T09:34:39;5.70;29.80
652;DHT22;310;48.490;9.200;2023-01-29T09:37:05;6.00;29.30
652;DHT22;310;48.490;9.200;2023-01-29T09:39:31;6.60;28.50
652;DHT22;310;48.490;9.200;2023-01-29T09:47:23;6.90;27.40
652;DHT22;310;48.490;9.200;2023-01-29T09:50:07;6.60;27.60
652;DHT22;310;48.490;9.200;2023-01-29T09:55:27;6.60;28.20
652;DHT22;310;48.490;9.200;2023-01-29T09:57:58;5.80;28.30
652;DHT22;310;48.490;9.200;2023-01-29T10:21:23;5.40;29.60
652;DHT22;310;48.490;9.200;2023-01-29T10:24:02;5.70;29.80
652;DHT22;310;48.490;9.200;2023-01-29T10:26:33;6.30;28.20
652;DHT22;310;48.490;9.200;2023-01-29T10:29:05;6.20;27.90
652;DHT22;310;48.490;9.200;2023-01-29T10:31:32;5.10;29.50
652;DHT22;310;48.490;9.200;2023-01-29T10:36:46;5.70;29.80
652;DHT22;310;48.490;9.200;2023-01-29T10:39:19;5.70;29.00
652;DHT22;310;48.490;9.200;2023-01-29T10:42:02;6.00;29.70
652;DHT22;310;48.490;9.200;2023-01-29T11:00:26;7.70;27.60
652;DHT22;310;48.490;9.200;2023-01-29T11:02:52;7.10;27.90
652;DHT22;310;48.490;9.200;2023-01-29T11:05:30;6.40;29.40
652;DHT22;310;48.490;9.200;2023-01-29T11:08:20;6.40;28.50
652;DHT22;310;48.490;9.200;2023-01-29T11:11:03;6.40;29.20
652;DHT22;310;48.490;9.200;2023-01-29T11:13:40;7.20;28.10
652;DHT22;310;48.490;9.200;2023-01-29T11:16:07;7.80;28.10
652;DHT22;310;48.490;9.200;2023-01-29T11:21:14;8.10;26.00
652;DHT22;310;48.490;9.200;2023-01-29T11:23:40;8.50;25.40
652;DHT22;310;48.490;9.200;2023-01-29T11:26:08;8.90;25.10
652;DHT22;310;48.490;9.200;2023-01-29T11:28:41;8.20;25.80
652;DHT22;310;48.490;9.200;2023-01-29T11:31:28;7.70;26.90
652;DHT22;310;48.490;9.200;2023-01-29T11:34:05;7.60;28.50
652;DHT22;310;48.490;9.200;2023-01-29T11:36:36;7.10;27.90
652;DHT22;310;48.490;9.200;2023-01-29T11:39:23;7.10;27.30
652;DHT22;310;48.490;9.200;2023-01-29T11:42:02;7.30;27.50
652;DHT22;310;48.490;9.200;2023-01-29T11:44:39;7.80;27.10
652;DHT22;310;48.490;9.200;2023-01-29T11:47:18;7.50;27.00
652;DHT22;310;48.490;9.200;2023-01-29T11:49:51;7.70;26.40
652;DHT22;310;48.490;9.200;2023-01-29T11:52:20;7.70;26.60
652;DHT22;310;48.490;9.200;2023-01-29T11:54:55;7.90;26.30
652;DHT22;310;48.490;9.200;2023-01-29T11:59:55;8.80;26.20
652;DHT22;310;48.490;9.200;2023-01-29T12:02:24;8.90;23.90
652;DHT22;310;48.490;9.200;2023-01-29T12:04:54;9.00;24.50
652;DHT22;310;48.490;9.200;2023-01-29T12:07:20;8.80;24.10
652;DHT22;310;48.490;9.200;2023-01-29T12:09:55;8.70;24.60
652;DHT22;310;48.490;9.200;2023-01-29T12:15:18;8.10;25.80
652;DHT22;310;48.490;9.200;2023-01-29T12:17:57;7.80;26.40
652;DHT22;310;48.490;9.200;2023-01-29T12:20:50;7.20;27.10
652;DHT22;310;48.490;9.200;2023-01-29T12:23:54;6.20;28.40
652;DHT22;310;48.490;9.200;2023-01-29T12:26:27;6.40;29.20
652;DHT22;310;48.490;9.200;2023-01-29T12:34:40;5.60;29.70
652;DHT22;310;48.490;9.200;2023-01-29T12:37:16;5.40;29.70
652;DHT22;310;48.490;9.200;2023-01-29T12:39:43;5.90;29.30
652;DHT22;310;48.490;9.200;2023-01-29T12:44:52;5.40;29.90
652;DHT22;310;48.490;9.200;2023-01-29T12:47:47;6.50;29.00
652;DHT22;310;48.490;9.200;2023-01-29T12:50:20;7.30;27.10
652;DHT22;310;48.490;9.200;2023-01-29T12:52:54;7.60;26.60
652;DHT22;310;48.490;9.200;2023-01-29T12:55:28;7.70;28.00
652;DHT22;310;48.490;9.200;2023-01-29T12:58:14;7.80;28.30
652;DHT22;310;48.490;9.200;2023-01-29T13:00:43;8.30;25.80
652;DHT22;310;48.490;9.200;2023-01-29T13:08:31;9.60;23.00
652;DHT22;310;48.490;9.200;2023-01-29T13:11:02;9.60;23.10
652;DHT22;310;48.490;9.200;2023-01-29T13:16:09;9.00;25.20
652;DHT22;310;48.490;9.200;2023-01-29T13:19:08;8.60;25.90
652;DHT22;310;48.490;9.200;2023-01-29T13:21:40;7.60;27.30
652;DHT22;310;48.490;9.200;2023-01-29T13:24:13;7.40;27.90
652;DHT22;310;48.490;9.200;2023-01-29T13:26:43;7.20;28.70
652;DHT22;310;48.490;9.200;2023-01-29T13:29:23;7.40;28.60
652;DHT22;310;48.490;9.200;2023-01-29T13:31:51;7.70;27.10
652;DHT22;310;48.490;9.200;2023-01-29T13:34:23;7.70;27.40
652;DHT22;310;48.490;9.200;2023-01-29T13:36:52;7.70;27.30
652;DHT22;310;48.490;9.200;2023-01-29T13:39:31;8.10;26.90
652;DHT22;310;48.490;9.200;2023-01-29T13:41:59;8.10;25.70
652;DHT22;310;48.490;9.200;2023-01-29T13:44:33;8.30;26.80
652;DHT22;310;48.490;9.200;2023-01-29T13:47:10;8.60;24.80
652;DHT22;310;48.490;9.200;2023-01-29T13:49:51;8.40;25.10
652;DHT22;310;48.490;9.200;2023-01-29T13:52:39;8.30;25.20
652;DHT22;310;48.490;9.200;2023-01-29T14:07:57;9.20;23.50
652;DHT22;310;48.490;9.200;2023-01-29T14:10:27;8.00;25.70
652;DHT22;310;48.490;9.200;2023-01-29T14:18:54;9.00;24.40
652;DHT22;310;48.490;9.200;2023-01-29T14:21:32;9.20;24.40
652;DHT22;310;48.490;9.200;2023-01-29T14:23:59;8.20;25.20
652;DHT22;310;48.490;9.200;2023-01-29T14:26:40;7.10;27.20
652;DHT22;310;48.490;9.200;2023-01-29T14:29:19;7.30;27.80
652;DHT22;310;48.490;9.200;2023-01-29T14:32:07;7.80;26.80
652;DHT22;310;48.490;9.200;2023-01-29T14:34:41;7.00;27.00
652;DHT22;310;48.490;9.200;2023-01-29T14:39:51;6.40;28.50
652;DHT22;310;48.490;9.200;2023-01-29T14:47:20;5.50;30.10
652;DHT22;310;48.490;9.200;2023-01-29T14:50:00;5.70;29.80
652;DHT22;310;48.490;9.200;2023-01-29T14:52:32;5.40;30.10
652;DHT22;310;48.490;9.200;2023-01-29T14:55:03;6.20;28.60
652;DHT22;310;48.490;9.200;2023-01-29T14:57:31;6.30;28.70
652;DHT22;310;48.490;9.200;2023-01-29T15:00:00;6.80;28.00
652;DHT22;310;48.490;9.200;2023-01-29T15:02:42;7.40;27.20
652;DHT22;310;48.490;9.200;2023-01-29T15:05:15;6.90;27.20
652;DHT22;310;48.490;9.200;2023-01-29T15:07:56;7.10;27.00
652;DHT22;310;48.490;9.200;2023-01-29T15:10:39;6.80;27.70
652;DHT22;310;48.490;9.200;2023-01-29T15:13:08;6.90;27.80
652;DHT22;310;48.490;9.200;2023-01-29T15:15:44;6.70;27.80
652;DHT22;310;48.490;9.200;2023-01-29T15:21:10;6.90;27.60
652;DHT22;310;48.490;9.200;2023-01-29T15:23:36;6.90;27.30
652;DHT22;310;48.490;9.200;2023-01-29T15:26:04;6.40;28.00
652;DHT22;310;48.490;9.200;2023-01-29T15:28:33;5.80;29.40
652;DHT22;310;48.490;9.200;2023-01-29T15:31:01;6.30;28.50
652;DHT22;310;48.490;9.200;2023-01-29T15:33:29;6.60;28.60
652;DHT22;310;48.490;9.200;2023-01-29T15:36:00;6.20;29.30
652;DHT22;310;48.490;9.200;2023-01-29T15:38:27;6.60;29.20
652;DHT22;310;48.490;9.200;2023-01-29T15:41:02;7.10;28.50
652;DHT22;310;48.490;9.200;2023-01-29T15:43:41;6.90;28.50
652;DHT22;310;48.490;9.200;2023-01-29T15:46:20;6.80;28.40
652;DHT22;310;48.490;9.200;2023-01-29T15:48:48;6.60;28.90
652;DHT22;310;48.490;9.200;2023-01-29T15:51:20;6.80;28.50
652;DHT22;310;48.490;9.200;2023-01-29T15:54:02;7.00;28.90
652;DHT22;310;48.490;9.200;2023-01-29T15:56:37;7.20;27.90
652;DHT22;310;48.490;9.200;2023-01-29T15:59:06;6.90;28.70
652;DHT22;310;48.490;9.200;2023-01-29T16:01:33;6.90;28.20
652;DHT22;310;48.490;9.200;2023-01-29T16:03:59;6.80;28.50
652;DHT22;310;48.490;9.200;2023-01-29T16:06:39;6.90;28.50
652;DHT22;310;48.490;9.200;2023-01-29T16:09:06;6.70;29.30
652;DHT22;310;48.490;9.200;2023-01-29T16:11:33;7.00;29.20
652;DHT22;310;48.490;9.200;2023-01-29T16:14:00;7.10;29.90
652;DHT22;310;48.490;9.200;2023-01-29T16:16:27;6.70;28.80
652;DHT22;310;48.490;9.200;2023-01-29T16:18:53;7.10;29.10
652;DHT22;310;48.490;9.200;2023-01-29T16:23:54;6.60;29.10
652;DHT22;310;48.490;9.200;2023-01-29T16:26:30;6.40;29.70
652;DHT22;310;48.490;9.200;2023-01-29T16:29:03;6.20;30.10
652;DHT22;310;48.490;9.200;2023-01-29T16:31:31;6.00;30.20
652;DHT22;310;48.490;9.200;2023-01-29T16:33:58;5.80;31.00
652;DHT22;310;48.490;9.200;2023-01-29T16:36:29;6.10;31.80
652;DHT22;310;48.490;9.200;2023-01-29T16:39:00;5.80;31.90
652;DHT22;310;48.490;9.200;2023-01-29T16:41:31;5.90;31.10
652;DHT22;310;48.490;9.200;2023-01-29T16:44:01;5.70;32.30
652;DHT22;310;48.490;9.200;2023-01-29T16:46:45;5.90;32.30
652;DHT22;310;48.490;9.200;2023-01-29T16:49:43;5.50;32.20
652;DHT22;310;48.490;9.200;2023-01-29T16:52:39;5.40;33.00
652;DHT22;310;48.490;9.200;2023-01-29T16:55:20;5.50;33.30
652;DHT22;310;48.490;9.200;2023-01-29T16:57:51;5.40;33.40
652;DHT22;310;48.490;9.200;2023-01-29T17:00:24;5.60;33.70
652;DHT22;310;48.490;9.200;2023-01-29T17:02:53;5.30;33.80
652;DHT22;310;48.490;9.200;2023-01-29T17:05:22;5.30;33.90
652;DHT22;310;48.490;9.200;2023-01-29T17:07:50;6.10;34.30
652;DHT22;310;48.490;9.200;2023-01-29T17:10:20;6.80;34.90
652;DHT22;310;48.490;9.200;2023-01-29T17:12:58;5.20;33.90
652;DHT22;310;48.490;9.200;2023-01-29T17:17:58;5.20;33.90
652;DHT22;310;48.490;9.200;2023-01-29T17:20:24;5.20;34.20
652;DHT22;310;48.490;9.200;2023-01-29T17:22:49;5.70;34.10
652;DHT22;310;48.490;9.200;2023-01-29T17:25:15;5.20;33.50
652;DHT22;310;48.490;9.200;2023-01-29T17:27:43;5.20;33.70
652;DHT22;310;48.490;9.200;2023-01-29T17:30:17;5.40;33.30
652;DHT22;310;48.490;9.200;2023-01-29T17:32:43;5.40;33.50
652;DHT22;310;48.490;9.200;2023-01-29T17:35:13;5.20;33.80
652;DHT22;310;48.490;9.200;2023-01-29T17:37:39;4.80;34.60
652;DHT22;310;48.490;9.200;2023-01-29T17:40:33;4.90;34.70
652;DHT22;310;48.490;9.200;2023-01-29T17:43:00;4.90;34.90
652;DHT22;310;48.490;9.200;2023-01-29T17:45:25;4.90;34.70
652;DHT22;310;48.490;9.200;2023-01-29T17:47:51;4.90;35.40
652;DHT22;310;48.490;9.200;2023-01-29T17:50:25;4.70;35.10
652;DHT22;310;48.490;9.200;2023-01-29T17:52:51;4.80;35.20
652;DHT22;310;48.490;9.200;2023-01-29T17:55:18;4.80;34.80
652;DHT22;310;48.490;9.200;2023-01-29T17:57:44;4.80;35.20
652;DHT22;310;48.490;9.200;2023-01-29T18:00:22;5.00;34.50
652;DHT22;310;48.490;9.200;2023-01-29T18:02:48;5.40;34.80
652;DHT22;310;48.490;9.200;2023-01-29T18:05:15;5.10;34.10
652;DHT22;310;48.490;9.200;2023-01-29T18:07:43;5.50;33.90
652;DHT22;310;48.490;9.200;2023-01-29T18:10:15;5.50;34.70
652;DHT22;310;48.490;9.200;2023-01-29T18:12:42;5.20;33.70
652;DHT22;310;48.490;9.200;2023-01-29T18:15:08;5.10;33.70
652;DHT22;310;48.490;9.200;2023-01-29T18:17:34;4.70;35.00
652;DHT22;310;48.490;9.200;2023-01-29T18:19:59;4.50;35.30
652;DHT22;310;48.490;9.200;2023-01-29T18:22:25;4.30;35.80
652;DHT22;310;48.490;9.200;2023-01-29T18:24:50;4.50;35.90
652;DHT22;310;48.490;9.200;2023-01-29T18:27:16;4.60;35.50
652;DHT22;310;48.490;9.200;2023-01-29T18:29:42;4.60;35.30
652;DHT22;310;48.490;9.200;2023-01-29T18:32:07;4.60;35.50
652;DHT22;310;48.490;9.200;2023-01-29T18:34:34;5.10;35.00
652;DHT22;310;48.490;9.200;2023-01-29T18:36:59;4.90;33.90
652;DHT22;310;48.490;9.200;2023-01-29T18:39:25;4.80;35.00
652;DHT22;310;48.490;9.200;2023-01-29T18:41:50;4.60;35.30
652;DHT22;310;48.490;9.200;2023-01-29T18:44:16;4.50;35.40
652;DHT22;310;48.490;9.200;2023-01-29T18:46:42;4.50;35.40
652;DHT22;310;48.490;9.200;2023-01-29T18:49:07;4.60;35.30
652;DHT22;310;48.490;9.200;2023-01-29T18:51:33;4.50;35.40
652;DHT22;310;48.490;9.200;2023-01-29T18:53:59;4.40;36.00
652;DHT22;310;48.490;9.200;2023-01-29T18:56:25;4.30;36.10
652;DHT22;310;48.490;9.200;2023-01-29T18:58:54;4.00;36.70
652;DHT22;310;48.490;9.200;2023-01-29T19:01:19;4.00;37.70
652;DHT22;310;48.490;9.200;2023-01-29T19:03:45;4.10;36.70
652;DHT22;310;48.490;9.200;2023-01-29T19:06:11;4.30;36.10
652;DHT22;310;48.490;9.200;2023-01-29T19:08:37;4.50;35.70
652;DHT22;310;48.490;9.200;2023-01-29T19:11:03;4.40;35.60
652;DHT22;310;48.490;9.200;2023-01-29T19:13:33;4.30;36.10
652;DHT22;310;48.490;9.200;2023-01-29T19:15:59;4.50;35.60
652;DHT22;310;48.490;9.200;2023-01-29T19:18:26;4.50;35.80
652;DHT22;310;48.490;9.200;2023-01-29T19:20:53;4.40;35.80
652;DHT22;310;48.490;9.200;2023-01-29T19:23:19;4.50;35.50
652;DHT22;310;48.490;9.200;2023-01-29T19:25:45;4.30;36.10
652;DHT22;310;48.490;9.200;2023-01-29T19:28:11;4.10;36.70
652;DHT22;310;48.490;9.200;2023-01-29T19:30:37;4.20;36.60
652;DHT22;310;48.490;9.200;2023-01-29T19:33:03;4.00;36.90
652;DHT22;310;48.490;9.200;2023-01-29T19:35:28;4.00;36.90
652;DHT22;310;48.490;9.200;2023-01-29T19:37:54;4.10;37.10
652;DHT22;310;48.490;9.200;2023-01-29T19:40:20;4.40;36.00
652;DHT22;310;48.490;9.200;2023-01-29T19:42:46;4.30;36.70
652;DHT22;310;48.490;9.200;2023-01-29T19:45:12;4.40;36.30
652;DHT22;310;48.490;9.200;2023-01-29T19:47:39;4.20;36.30